Time;durP1;ratioP1;P1;durP2;ratioP2;P2;SDS_P1;SDS_P2;PMS_P1;PMS_P2;Temp;Humidity;BMP_temperature;BMP_pressure;BME280_temperature;BME280_humidity;BME280_pressure;Samples;Min_cycle;Max_cycle;Signal;HPM_P1;HPM_P2
2022/08/21 00:00:36;;;;;;;46.45;37.88;;;;;;;;;;5090919;28;20028;-76
2022/08/21 00:03:04;;;;;;;43.38;35.13;;;;;;;;;;5092389;28;20062;-77
2022/08/21 00:05:31;;;;;;;44.33;35.63;;;;;;;;;;5124417;27;20038;-76
2022/08/21 00:07:58;;;;;;;44.35;36.00;;;;;;;;;;5091754;28;20104;-77
2022/08/21 00:10:24;;;;;;;43.60;36.40;;;;;;;;;;5091496;28;20130;-78
2022/08/21 00:12:50;;;;;;;39.97;35.17;;;;;;;;;;5124803;27;20118;-79
2022/08/21 00:15:19;;;;;;;40.35;35.63;;;;;;;;;;5092025;28;20020;-78
2022/08/21 00:17:45;;;;;;;41.92;36.92;;;;;;;;;;5091456;28;20028;-77
2022/08/21 00:20:13;;;;;;;39.63;34.88;;;;;;;;;;5091340;28;20069;-76
2022/08/21 00:22:39;;;;;;;39.42;30.52;;;;;;;;;;5078409;28;20070;-78
2022/08/21 00:25:06;;;;;;;43.88;31.98;;;;;;;;;;5124609;27;20102;-77
2022/08/21 00:27:32;;;;;;;34.33;29.42;;;;;;;;;;5091474;28;20016;-77
2022/08/21 00:29:58;;;;;;;34.13;28.98;;;;;;;;;;5091576;28;20028;-77
2022/08/21 00:32:25;;;;;;;31.80;28.10;;;;;;;;;;5091881;28;20104;-76
2022/08/21 00:34:52;;;;;;;43.53;30.17;;;;;;;;;;5091413;28;20033;-77
2022/08/21 00:37:19;;;;;;;37.50;28.15;;;;;;;;;;5089805;28;20024;-76
2022/08/21 00:39:46;;;;;;;38.13;27.85;;;;;;;;;;5095324;28;20025;-75
2022/08/21 00:42:14;;;;;;;31.25;27.85;;;;;;;;;;5091200;28;20020;-78
2022/08/21 00:44:42;;;;;;;32.67;29.30;;;;;;;;;;5091343;28;20493;-76
2022/08/21 00:47:08;;;;;;;30.65;27.00;;;;;;;;;;5124538;27;20357;-78
2022/08/21 00:49:34;;;;;;;28.50;25.42;;;;;;;;;;5089876;28;20032;-78
2022/08/21 00:52:01;;;;;;;25.38;20.38;;;;;;;;;;5089955;28;20066;-79
2022/08/21 00:54:29;;;;;;;24.52;21.55;;;;;;;;;;5091217;28;20463;-78
2022/08/21 00:56:57;;;;;;;32.70;22.55;;;;;;;;;;5091187;28;20067;-79
2022/08/21 00:59:24;;;;;;;23.63;21.17;;;;;;;;;;5091421;28;20016;-77
2022/08/21 01:01:51;;;;;;;24.67;20.52;;;;;;;;;;5124208;27;20036;-79
2022/08/21 01:04:18;;;;;;;26.23;21.75;;;;;;;;;;5077075;28;20130;-79
2022/08/21 01:06:45;;;;;;;21.45;19.35;;;;;;;;;;5117646;27;20460;-80
2022/08/21 01:09:12;;;;;;;26.85;22.90;;;;;;;;;;5083652;28;20052;-80
2022/08/21 01:11:38;;;;;;;28.58;20.25;;;;;;;;;;5089887;28;20065;-77
2022/08/21 01:14:04;;;;;;;31.83;20.30;;;;;;;;;;5090916;28;20022;-79
2022/08/21 01:16:30;;;;;;;21.70;19.15;;;;;;;;;;5114190;28;20023;-78
2022/08/21 01:18:56;;;;;;;21.23;17.25;;;;;;;;;;5086777;28;20021;-78
2022/08/21 01:21:24;;;;;;;21.95;17.63;;;;;;;;;;5090611;28;20080;-79
2022/08/21 01:23:52;;;;;;;17.58;15.40;;;;;;;;;;5089062;28;20095;-78
2022/08/21 01:26:20;;;;;;;21.02;18.38;;;;;;;;;;5091023;28;20023;-78
2022/08/21 01:28:50;;;;;;;20.77;17.85;;;;;;;;;;5077079;28;20024;-79
2022/08/21 01:31:18;;;;;;;19.75;17.67;;;;;;;;;;5123709;27;20052;-78
2022/08/21 01:33:44;;;;;;;22.08;17.92;;;;;;;;;;5090785;28;20398;-78
2022/08/21 01:36:10;;;;;;;21.63;19.25;;;;;;;;;;5123426;27;20052;-78
2022/08/21 01:38:36;;;;;;;23.13;18.42;;;;;;;;;;5090482;28;20020;-76
2022/08/21 01:41:02;;;;;;;23.75;20.15;;;;;;;;;;5090908;28;20114;-77
2022/08/21 01:43:28;;;;;;;22.52;20.27;;;;;;;;;;5073171;28;20023;-76
2022/08/21 01:45:54;;;;;;;23.65;21.20;;;;;;;;;;5080442;28;20025;-76
2022/08/21 01:48:20;;;;;;;27.55;23.55;;;;;;;;;;5091276;28;21152;-76
2022/08/21 01:50:46;;;;;;;28.08;25.00;;;;;;;;;;5117546;28;20040;-78
2022/08/21 01:53:14;;;;;;;25.73;22.20;;;;;;;;;;5076910;28;20390;-77
2022/08/21 01:55:40;;;;;;;23.10;19.77;;;;;;;;;;5090563;28;20016;-78
2022/08/21 01:58:06;;;;;;;19.92;17.83;;;;;;;;;;5089385;28;20020;-78
2022/08/21 02:00:32;;;;;;;17.88;15.00;;;;;;;;;;5082168;28;20055;-77
2022/08/21 02:02:58;;;;;;;21.52;14.82;;;;;;;;;;5091126;28;20023;-76
2022/08/21 02:05:24;;;;;;;18.67;14.82;;;;;;;;;;5089554;28;20103;-78
2022/08/21 02:07:52;;;;;;;17.77;12.57;;;;;;;;;;5090189;28;20012;-78
2022/08/21 02:10:23;;;;;;;18.77;13.05;;;;;;;;;;5089236;28;20040;-75
2022/08/21 02:12:49;;;;;;;12.48;11.32;;;;;;;;;;5090818;28;20024;-80
2022/08/21 02:15:16;;;;;;;17.92;12.88;;;;;;;;;;5112651;27;20023;-78
2022/08/21 02:17:53;;;;;;;13.93;11.70;;;;;;;;;;5087658;28;20051;-77
2022/08/21 02:20:22;;;;;;;14.73;11.57;;;;;;;;;;5111232;27;20550;-78
2022/08/21 02:22:49;;;;;;;17.88;14.43;;;;;;;;;;5085935;28;20055;-77
2022/08/21 02:25:16;;;;;;;24.52;19.73;;;;;;;;;;5089023;28;20347;-79
2022/08/21 02:27:43;;;;;;;23.88;18.15;;;;;;;;;;5091390;28;20088;-77
2022/08/21 02:30:14;;;;;;;20.38;17.50;;;;;;;;;;5093263;28;20039;-76
2022/08/21 02:32:40;;;;;;;22.95;17.15;;;;;;;;;;5092746;28;20471;-79
2022/08/21 02:35:07;;;;;;;20.65;17.45;;;;;;;;;;5094227;28;20051;-78
2022/08/21 02:37:33;;;;;;;19.35;16.80;;;;;;;;;;5093371;28;20064;-77
2022/08/21 02:40:00;;;;;;;18.98;16.15;;;;;;;;;;5093705;28;20391;-78
2022/08/21 02:42:27;;;;;;;21.60;17.30;;;;;;;;;;5126285;27;20481;-79
2022/08/21 02:44:53;;;;;;;17.75;15.77;;;;;;;;;;5088161;28;20024;-78
2022/08/21 02:47:19;;;;;;;21.27;17.48;;;;;;;;;;5085427;28;20039;-78
2022/08/21 02:49:45;;;;;;;25.00;18.88;;;;;;;;;;5113677;27;20044;-76
2022/08/21 02:52:11;;;;;;;21.25;17.85;;;;;;;;;;5085698;28;20043;-78
2022/08/21 02:54:37;;;;;;;22.98;19.10;;;;;;;;;;5085134;28;20028;-78
2022/08/21 02:57:03;;;;;;;22.00;19.48;;;;;;;;;;5087314;28;20383;-77
2022/08/21 02:59:29;;;;;;;22.60;16.50;;;;;;;;;;5121240;27;21688;-78
2022/08/21 03:01:55;;;;;;;17.13;15.43;;;;;;;;;;5126276;27;20053;-79
2022/08/21 03:04:22;;;;;;;13.20;11.65;;;;;;;;;;5078670;28;20024;-77
2022/08/21 03:06:48;;;;;;;24.27;12.43;;;;;;;;;;5086746;28;20025;-79
2022/08/21 03:09:14;;;;;;;15.32;12.15;;;;;;;;;;5080551;28;20027;-79
2022/08/21 03:11:40;;;;;;;14.88;11.63;;;;;;;;;;5092465;28;20016;-76
2022/08/21 03:14:06;;;;;;;16.92;15.10;;;;;;;;;;5125950;27;20047;-79
2022/08/21 03:16:32;;;;;;;14.93;11.82;;;;;;;;;;5092871;28;20043;-77
2022/08/21 03:18:59;;;;;;;14.82;13.27;;;;;;;;;;5091827;28;20028;-78
2022/08/21 03:21:25;;;;;;;13.82;12.35;;;;;;;;;;5092262;28;20131;-78
2022/08/21 03:23:53;;;;;;;16.58;12.77;;;;;;;;;;5122971;27;20048;-76
2022/08/21 03:26:19;;;;;;;20.60;12.48;;;;;;;;;;5078368;28;20012;-78
2022/08/21 03:28:45;;;;;;;16.08;14.38;;;;;;;;;;5091773;28;20054;-76
2022/08/21 03:31:12;;;;;;;19.23;15.45;;;;;;;;;;5089771;28;20028;-78
2022/08/21 03:33:38;;;;;;;14.63;13.27;;;;;;;;;;5110739;27;20020;-76
2022/08/21 03:36:06;;;;;;;18.70;13.00;;;;;;;;;;5089100;28;20050;-76
2022/08/21 03:38:33;;;;;;;22.48;14.45;;;;;;;;;;5091473;28;20102;-75
2022/08/21 03:40:59;;;;;;;17.65;15.75;;;;;;;;;;5091758;28;20344;-75
2022/08/21 03:43:26;;;;;;;19.77;16.92;;;;;;;;;;5093241;28;20051;-76
2022/08/21 03:45:52;;;;;;;22.52;18.13;;;;;;;;;;5091925;28;20475;-79
2022/08/21 03:48:19;;;;;;;22.98;17.67;;;;;;;;;;5092611;28;20099;-78
2022/08/21 03:50:47;;;;;;;22.08;18.25;;;;;;;;;;5092359;28;20028;-78
2022/08/21 03:53:13;;;;;;;23.63;19.23;;;;;;;;;;5124473;27;20427;-78
2022/08/21 03:55:39;;;;;;;24.02;19.85;;;;;;;;;;5099208;28;20463;-77
2022/08/21 03:58:05;;;;;;;27.30;23.10;;;;;;;;;;5090826;28;20054;-78
2022/08/21 04:00:31;;;;;;;31.92;24.15;;;;;;;;;;5091829;28;20020;-78
2022/08/21 04:02:57;;;;;;;29.45;26.10;;;;;;;;;;5124814;27;20139;-76
2022/08/21 04:05:26;;;;;;;27.88;22.88;;;;;;;;;;5092269;28;20020;-78
2022/08/21 04:07:57;;;;;;;27.58;22.92;;;;;;;;;;5091893;28;20172;-76
2022/08/21 04:10:24;;;;;;;34.45;26.00;;;;;;;;;;5090830;28;20036;-75
2022/08/21 04:12:50;;;;;;;29.10;23.40;;;;;;;;;;5092062;28;20028;-76
2022/08/21 04:15:16;;;;;;;25.38;22.67;;;;;;;;;;5125220;27;20383;-78
2022/08/21 04:17:43;;;;;;;26.00;20.98;;;;;;;;;;5091515;28;20012;-76
2022/08/21 04:20:09;;;;;;;24.23;21.48;;;;;;;;;;5092170;28;20131;-77
2022/08/21 04:22:35;;;;;;;20.60;18.42;;;;;;;;;;5077549;28;20118;-77
2022/08/21 04:25:01;;;;;;;26.10;19.67;;;;;;;;;;5081726;28;20027;-76
2022/08/21 04:27:27;;;;;;;31.10;19.55;;;;;;;;;;5087406;28;20016;-77
2022/08/21 04:29:53;;;;;;;18.65;16.33;;;;;;;;;;5096377;28;20081;-77
2022/08/21 04:32:23;;;;;;;24.75;18.73;;;;;;;;;;5094732;28;20020;-76
2022/08/21 04:34:49;;;;;;;20.77;16.98;;;;;;;;;;5090597;28;20020;-77
2022/08/21 04:37:15;;;;;;;23.02;16.33;;;;;;;;;;5109638;27;20434;-79
2022/08/21 04:39:41;;;;;;;23.08;16.02;;;;;;;;;;5090919;28;20020;-78
2022/08/21 04:42:08;;;;;;;19.67;17.52;;;;;;;;;;5090481;28;20140;-78
2022/08/21 04:44:34;;;;;;;17.27;14.25;;;;;;;;;;5090170;28;20070;-76
2022/08/21 04:47:01;;;;;;;18.40;13.63;;;;;;;;;;5091777;28;20028;-76
2022/08/21 04:49:27;;;;;;;18.75;15.23;;;;;;;;;;5090190;28;20032;-79
2022/08/21 04:51:53;;;;;;;23.35;14.23;;;;;;;;;;5090049;28;20150;-75
2022/08/21 04:54:22;;;;;;;19.50;16.33;;;;;;;;;;5091088;28;20031;-76
2022/08/21 04:57:03;;;;;;;20.58;18.52;;;;;;;;;;5091353;28;20016;-78
2022/08/21 04:59:32;;;;;;;24.58;21.05;;;;;;;;;;5091053;28;20089;-76
2022/08/21 05:01:58;;;;;;;26.73;20.15;;;;;;;;;;5091244;28;20016;-75
2022/08/21 05:04:27;;;;;;;22.20;19.70;;;;;;;;;;5123821;27;20853;-75
2022/08/21 05:06:55;;;;;;;24.98;21.33;;;;;;;;;;5083857;28;20025;-75
2022/08/21 05:09:22;;;;;;;27.65;18.90;;;;;;;;;;5086734;28;20020;-76
2022/08/21 05:11:48;;;;;;;23.50;19.17;;;;;;;;;;5070971;28;20486;-76
2022/08/21 05:14:15;;;;;;;21.95;18.40;;;;;;;;;;5090437;28;20025;-76
2022/08/21 05:16:43;;;;;;;18.08;16.17;;;;;;;;;;5123963;27;20459;-76
2022/08/21 05:19:10;;;;;;;19.80;16.40;;;;;;;;;;5089840;28;20472;-77
2022/08/21 05:21:37;;;;;;;19.05;15.52;;;;;;;;;;5090658;28;20097;-78
2022/08/21 05:24:03;;;;;;;19.52;14.35;;;;;;;;;;5091126;28;20023;-77
2022/08/21 05:26:29;;;;;;;18.15;13.52;;;;;;;;;;5091298;28;20055;-78
2022/08/21 05:28:55;;;;;;;15.30;13.45;;;;;;;;;;5090930;28;20020;-79
2022/08/21 05:31:22;;;;;;;14.82;11.88;;;;;;;;;;5095510;28;20078;-78
2022/08/21 05:33:48;;;;;;;16.23;11.18;;;;;;;;;;5090115;28;20467;-77
2022/08/21 05:36:14;;;;;;;12.75;10.27;;;;;;;;;;5078326;28;20103;-77
2022/08/21 05:38:40;;;;;;;13.05;10.68;;;;;;;;;;5090947;28;20475;-76
2022/08/21 05:41:07;;;;;;;13.10;11.48;;;;;;;;;;5090909;28;20483;-77
2022/08/21 05:43:35;;;;;;;16.45;11.02;;;;;;;;;;5091593;28;20490;-75
2022/08/21 05:46:02;;;;;;;20.00;9.52;;;;;;;;;;5076316;28;20382;-77
2022/08/21 05:48:28;;;;;;;12.52;9.38;;;;;;;;;;5091327;28;20027;-77
2022/08/21 05:50:54;;;;;;;14.43;10.45;;;;;;;;;;5092009;28;20043;-75
2022/08/21 05:53:22;;;;;;;10.70;9.30;;;;;;;;;;5094837;28;20143;-74
2022/08/21 05:55:49;;;;;;;11.45;10.10;;;;;;;;;;5101836;28;20023;-77
2022/08/21 05:58:16;;;;;;;12.63;9.98;;;;;;;;;;5140523;27;20043;-76
2022/08/21 06:00:43;;;;;;;13.15;8.10;;;;;;;;;;5106576;28;20024;-74
2022/08/21 06:03:13;;;;;;;12.30;9.02;;;;;;;;;;5104680;28;20016;-75
2022/08/21 06:05:39;;;;;;;13.63;10.25;;;;;;;;;;5142241;27;20106;-75
2022/08/21 06:08:05;;;;;;;13.00;10.27;;;;;;;;;;5094621;28;20098;-76
2022/08/21 06:10:31;;;;;;;15.00;9.15;;;;;;;;;;5094471;28;20040;-75
2022/08/21 06:12:57;;;;;;;12.23;10.07;;;;;;;;;;5127073;27;20028;-78
2022/08/21 06:15:23;;;;;;;13.25;9.45;;;;;;;;;;5079898;28;20027;-77
2022/08/21 06:17:50;;;;;;;15.82;10.32;;;;;;;;;;5092949;28;20020;-75
2022/08/21 06:20:16;;;;;;;14.27;9.45;;;;;;;;;;5093263;28;20103;-74
2022/08/21 06:22:42;;;;;;;22.65;17.02;;;;;;;;;;5077856;28;20044;-74
2022/08/21 06:25:09;;;;;;;11.32;10.13;;;;;;;;;;5093928;28;20020;-74
2022/08/21 06:27:36;;;;;;;41.85;28.77;;;;;;;;;;5126144;27;20067;-74
2022/08/21 06:30:03;;;;;;;19.40;12.63;;;;;;;;;;5126631;27;20394;-75
2022/08/21 06:32:29;;;;;;;16.30;10.60;;;;;;;;;;5093648;28;20091;-76
2022/08/21 06:34:55;;;;;;;16.00;9.95;;;;;;;;;;5126591;27;20119;-76
2022/08/21 06:37:22;;;;;;;9.55;8.52;;;;;;;;;;5092201;28;20020;-75
2022/08/21 06:39:48;;;;;;;9.90;8.32;;;;;;;;;;5093488;28;20027;-75
2022/08/21 06:42:15;;;;;;;14.80;8.88;;;;;;;;;;5093344;28;20035;-74
2022/08/21 06:44:41;;;;;;;13.90;10.63;;;;;;;;;;5093728;28;20028;-75
2022/08/21 06:47:07;;;;;;;17.33;10.52;;;;;;;;;;5126472;27;20016;-75
2022/08/21 06:49:34;;;;;;;12.63;9.88;;;;;;;;;;5093467;28;20042;-76
2022/08/21 06:52:00;;;;;;;14.13;10.10;;;;;;;;;;5093581;28;20052;-77
2022/08/21 06:54:26;;;;;;;17.67;9.43;;;;;;;;;;5093235;28;20027;-77
2022/08/21 06:56:52;;;;;;;12.85;8.27;;;;;;;;;;5100691;28;20020;-76
2022/08/21 06:59:18;;;;;;;12.88;8.85;;;;;;;;;;5126280;27;20027;-76
2022/08/21 07:01:44;;;;;;;10.82;9.32;;;;;;;;;;5093070;28;20031;-77
2022/08/21 07:04:11;;;;;;;9.77;8.23;;;;;;;;;;5126044;27;20173;-76
2022/08/21 07:06:37;;;;;;;12.27;9.48;;;;;;;;;;5131267;27;20024;-76
2022/08/21 07:09:03;;;;;;;11.60;8.13;;;;;;;;;;5112229;28;20016;-76
2022/08/21 07:11:29;;;;;;;9.75;8.55;;;;;;;;;;5113715;28;20028;-77
2022/08/21 07:13:56;;;;;;;10.73;8.93;;;;;;;;;;5112324;28;20066;-76
2022/08/21 07:16:22;;;;;;;11.70;7.90;;;;;;;;;;5093864;28;20150;-76
2022/08/21 07:18:49;;;;;;;11.02;8.68;;;;;;;;;;5092663;28;20031;-77
2022/08/21 07:21:15;;;;;;;11.55;9.05;;;;;;;;;;5086091;28;20062;-76
2022/08/21 07:23:43;;;;;;;13.88;9.68;;;;;;;;;;5118412;27;20416;-77
2022/08/21 07:26:09;;;;;;;11.75;8.48;;;;;;;;;;5093094;28;20022;-77
2022/08/21 07:28:35;;;;;;;13.23;8.93;;;;;;;;;;5092657;28;20030;-76
2022/08/21 07:31:02;;;;;;;14.50;9.77;;;;;;;;;;5099225;28;20032;-75
2022/08/21 07:33:29;;;;;;;12.00;8.95;;;;;;;;;;5112967;27;20379;-75
2022/08/21 07:35:55;;;;;;;14.65;9.88;;;;;;;;;;5091308;28;20048;-76
2022/08/21 07:38:21;;;;;;;12.80;9.35;;;;;;;;;;5082083;28;20023;-76
2022/08/21 07:40:49;;;;;;;9.43;7.80;;;;;;;;;;5089391;28;20047;-76
2022/08/21 07:43:16;;;;;;;13.75;9.30;;;;;;;;;;5083201;28;20016;-76
2022/08/21 07:45:42;;;;;;;14.95;9.85;;;;;;;;;;5120173;27;20111;-75
2022/08/21 07:48:09;;;;;;;14.02;10.15;;;;;;;;;;5093146;28;20020;-76
2022/08/21 07:50:36;;;;;;;12.20;9.20;;;;;;;;;;5092457;28;20613;-75
2022/08/21 07:53:02;;;;;;;13.55;9.52;;;;;;;;;;5110472;27;20068;-75
2022/08/21 07:55:28;;;;;;;15.60;10.20;;;;;;;;;;5092537;28;20016;-76
2022/08/21 07:57:54;;;;;;;12.38;10.13;;;;;;;;;;5086071;28;20047;-77
2022/08/21 08:00:22;;;;;;;14.50;10.25;;;;;;;;;;5125025;27;20060;-77
2022/08/21 08:02:49;;;;;;;14.70;10.05;;;;;;;;;;5092220;28;20016;-75
2022/08/21 08:05:16;;;;;;;12.18;9.93;;;;;;;;;;5092225;28;20091;-76
2022/08/21 08:07:42;;;;;;;16.83;10.20;;;;;;;;;;5124657;27;20394;-75
2022/08/21 08:10:09;;;;;;;12.32;10.20;;;;;;;;;;5090513;28;20038;-75
2022/08/21 08:12:39;;;;;;;10.98;8.40;;;;;;;;;;5091856;28;20028;-75
2022/08/21 08:15:06;;;;;;;11.75;10.38;;;;;;;;;;5124390;27;20055;-76
2022/08/21 08:17:32;;;;;;;14.45;10.48;;;;;;;;;;5077640;28;20130;-75
2022/08/21 08:20:00;;;;;;;14.50;11.18;;;;;;;;;;5091417;28;20024;-76
2022/08/21 08:22:27;;;;;;;14.02;11.07;;;;;;;;;;5124030;27;20048;-75
2022/08/21 08:24:53;;;;;;;12.07;10.82;;;;;;;;;;5091548;28;20107;-75
2022/08/21 08:27:19;;;;;;;12.15;9.55;;;;;;;;;;5090908;28;20027;-75
2022/08/21 08:29:46;;;;;;;11.45;9.40;;;;;;;;;;5081745;28;20084;-75
2022/08/21 08:32:12;;;;;;;12.23;8.80;;;;;;;;;;5094177;28;20112;-75
2022/08/21 08:34:39;;;;;;;12.88;9.45;;;;;;;;;;5124866;27;20020;-75
2022/08/21 08:37:08;;;;;;;9.38;8.23;;;;;;;;;;5091300;28;20077;-75
2022/08/21 08:39:34;;;;;;;13.95;8.68;;;;;;;;;;5124205;27;20074;-75
2022/08/21 08:42:05;;;;;;;8.80;7.57;;;;;;;;;;5091666;28;20020;-75
2022/08/21 08:44:31;;;;;;;12.32;8.82;;;;;;;;;;5085642;28;20024;-76
2022/08/21 08:46:58;;;;;;;13.82;9.45;;;;;;;;;;5083141;28;20020;-76
2022/08/21 08:49:32;;;;;;;8.60;7.35;;;;;;;;;;5091066;28;20044;-75
2022/08/21 08:52:06;;;;;;;10.50;8.15;;;;;;;;;;5124225;27;20053;-75
2022/08/21 08:54:33;;;;;;;11.20;8.48;;;;;;;;;;5123736;27;20044;-75
2022/08/21 08:57:01;;;;;;;10.15;7.22;;;;;;;;;;5124297;27;20039;-76
2022/08/21 08:59:30;;;;;;;8.18;7.28;;;;;;;;;;5097773;28;20555;-74
2022/08/21 09:01:56;;;;;;;11.40;6.43;;;;;;;;;;5091103;28;20390;-75
2022/08/21 09:04:24;;;;;;;9.35;6.30;;;;;;;;;;5123007;27;20114;-75
2022/08/21 09:06:56;;;;;;;21.33;7.35;;;;;;;;;;5077986;28;20028;-75
2022/08/21 09:09:26;;;;;;;13.67;8.63;;;;;;;;;;5123335;27;20024;-75
2022/08/21 09:11:52;;;;;;;12.48;8.95;;;;;;;;;;5110556;27;20073;-74
2022/08/21 09:14:29;;;;;;;11.23;8.63;;;;;;;;;;5089610;28;20020;-76
2022/08/21 09:16:55;;;;;;;10.82;9.05;;;;;;;;;;5091131;28;20059;-76
2022/08/21 09:19:54;;;;;;;11.43;7.32;;;;;;;;;;5085948;28;20055;-76
2022/08/21 09:22:28;;;;;;;6.18;4.88;;;;;;;;;;5066841;28;20052;-79
2022/08/21 09:24:59;;;;;;;10.65;5.70;;;;;;;;;;5092589;28;20074;-79
2022/08/21 09:27:26;;;;;;;6.47;4.22;;;;;;;;;;5079356;28;20111;-78
2022/08/21 09:29:54;;;;;;;6.50;3.70;;;;;;;;;;5096153;28;20031;-79
2022/08/21 09:32:21;;;;;;;5.72;3.55;;;;;;;;;;5098133;28;20095;-77
2022/08/21 09:34:58;;;;;;;5.55;3.60;;;;;;;;;;5094936;28;20024;-77
2022/08/21 09:37:24;;;;;;;5.32;3.47;;;;;;;;;;5091717;28;20025;-79
2022/08/21 09:39:51;;;;;;;4.60;3.65;;;;;;;;;;5093334;28;20028;-77
2022/08/21 09:42:25;;;;;;;5.57;4.28;;;;;;;;;;5127750;27;20023;-79
2022/08/21 09:45:05;;;;;;;7.18;4.32;;;;;;;;;;5127822;27;20020;-77
2022/08/21 09:47:31;;;;;;;5.60;4.00;;;;;;;;;;5095093;28;20028;-78
2022/08/21 09:50:07;;;;;;;9.95;5.82;;;;;;;;;;5094671;28;20032;-77
2022/08/21 09:52:33;;;;;;;8.77;6.65;;;;;;;;;;5127512;27;20095;-77
2022/08/21 09:54:59;;;;;;;8.85;6.43;;;;;;;;;;5127677;27;20021;-78
2022/08/21 09:57:40;;;;;;;11.93;8.25;;;;;;;;;;5094304;28;20027;-76
2022/08/21 10:00:24;;;;;;;9.77;6.78;;;;;;;;;;5099539;28;20024;-77
2022/08/21 10:02:50;;;;;;;11.65;7.57;;;;;;;;;;5093944;28;20491;-79
2022/08/21 10:05:22;;;;;;;10.45;8.50;;;;;;;;;;5127168;27;20028;-78
2022/08/21 10:07:48;;;;;;;13.38;9.45;;;;;;;;;;5126921;27;21120;-79
2022/08/21 10:10:18;;;;;;;12.63;8.68;;;;;;;;;;5093975;28;20503;-79
2022/08/21 10:12:44;;;;;;;9.63;7.97;;;;;;;;;;5094194;28;20074;-78
2022/08/21 10:15:33;;;;;;;12.63;8.32;;;;;;;;;;5114250;27;20475;-79
2022/08/21 10:18:05;;;;;;;10.73;8.55;;;;;;;;;;5075822;28;20036;-79
2022/08/21 10:20:45;;;;;;;12.27;6.95;;;;;;;;;;5093374;28;20064;-79
2022/08/21 10:23:11;;;;;;;9.80;6.53;;;;;;;;;;5092731;28;20380;-80
2022/08/21 10:25:56;;;;;;;10.07;6.20;;;;;;;;;;5094072;28;20125;-78
2022/08/21 10:28:34;;;;;;;7.75;5.30;;;;;;;;;;5094180;28;20024;-78
2022/08/21 10:31:19;;;;;;;6.95;5.78;;;;;;;;;;5134014;27;20063;-78
2022/08/21 10:34:05;;;;;;;8.13;6.07;;;;;;;;;;5092819;28;20454;-78
2022/08/21 10:36:35;;;;;;;8.85;6.43;;;;;;;;;;5088983;28;20032;-79
2022/08/21 10:39:07;;;;;;;7.30;5.45;;;;;;;;;;5093222;28;20024;-78
2022/08/21 10:41:39;;;;;;;6.95;4.80;;;;;;;;;;5093926;28;20073;-79
2022/08/21 10:44:05;;;;;;;8.32;4.97;;;;;;;;;;5093646;28;20039;-79
2022/08/21 10:46:34;;;;;;;6.15;4.82;;;;;;;;;;5093338;28;20020;-80
2022/08/21 10:49:13;;;;;;;8.95;4.95;;;;;;;;;;5093511;28;20028;-80
2022/08/21 10:52:02;;;;;;;7.15;4.90;;;;;;;;;;5092303;28;20077;-79
2022/08/21 10:54:36;;;;;;;8.13;5.75;;;;;;;;;;5090432;28;20028;-78
2022/08/21 10:57:10;;;;;;;13.18;7.53;;;;;;;;;;5115708;27;20028;-76
2022/08/21 10:59:36;;;;;;;7.72;5.30;;;;;;;;;;5127073;27;20472;-80
2022/08/21 11:02:05;;;;;;;6.88;4.57;;;;;;;;;;5093714;28;20032;-78
2022/08/21 11:04:40;;;;;;;7.60;4.70;;;;;;;;;;5093397;28;20055;-80
2022/08/21 11:07:09;;;;;;;5.88;3.65;;;;;;;;;;5125808;27;20035;-79
2022/08/21 11:09:37;;;;;;;6.68;5.20;;;;;;;;;;5078736;28;20025;-79
2022/08/21 11:12:07;;;;;;;5.38;4.20;;;;;;;;;;5125999;27;20582;-79
2022/08/21 11:14:51;;;;;;;3.75;2.65;;;;;;;;;;5126280;27;20020;-79
2022/08/21 11:17:21;;;;;;;4.43;2.50;;;;;;;;;;5093166;28;20028;-78
2022/08/21 11:20:10;;;;;;;5.10;2.60;;;;;;;;;;5084501;28;20020;-77
2022/08/21 11:22:57;;;;;;;4.85;2.33;;;;;;;;;;5123519;27;20052;-78
2022/08/21 11:25:27;;;;;;;5.40;3.47;;;;;;;;;;5093086;28;20150;-78
2022/08/21 11:28:11;;;;;;;4.70;3.08;;;;;;;;;;5092671;28;20069;-79
2022/08/21 11:30:52;;;;;;;4.72;2.63;;;;;;;;;;5096207;28;20032;-78
2022/08/21 11:33:18;;;;;;;5.72;2.58;;;;;;;;;;5093025;28;20023;-80
2022/08/21 11:36:08;;;;;;;5.13;2.22;;;;;;;;;;5092613;28;20020;-79
2022/08/21 11:38:38;;;;;;;5.65;3.28;;;;;;;;;;5125271;27;20073;-80
2022/08/21 11:41:04;;;;;;;7.10;2.80;;;;;;;;;;5125496;27;20020;-77
2022/08/21 11:43:47;;;;;;;6.40;3.65;;;;;;;;;;5092597;28;20031;-78
2022/08/21 11:46:38;;;;;;;9.57;3.38;;;;;;;;;;5116252;27;20069;-78
2022/08/21 11:49:17;;;;;;;6.90;3.22;;;;;;;;;;5089732;28;20028;-79
2022/08/21 11:52:06;;;;;;;4.35;3.35;;;;;;;;;;5092144;28;20043;-80
2022/08/21 11:54:51;;;;;;;4.90;2.70;;;;;;;;;;5074952;28;20031;-78
2022/08/21 11:57:20;;;;;;;5.95;3.97;;;;;;;;;;5088071;28;20031;-78
2022/08/21 11:59:49;;;;;;;7.53;4.05;;;;;;;;;;5093179;28;20028;-77
2022/08/21 12:02:18;;;;;;;6.18;4.03;;;;;;;;;;5094702;28;20012;-80
2022/08/21 12:04:46;;;;;;;5.18;4.20;;;;;;;;;;5124906;27;20076;-79
2022/08/21 12:07:18;;;;;;;5.93;4.63;;;;;;;;;;5125184;27;20028;-80
2022/08/21 12:09:54;;;;;;;6.53;5.20;;;;;;;;;;5125026;27;20174;-79
2022/08/21 12:12:23;;;;;;;9.38;6.43;;;;;;;;;;5087855;28;20405;-80
2022/08/21 12:14:51;;;;;;;9.52;7.28;;;;;;;;;;5081945;28;20028;-78
2022/08/21 12:17:21;;;;;;;9.98;8.27;;;;;;;;;;5120661;27;20503;-77
2022/08/21 12:19:57;;;;;;;11.38;9.20;;;;;;;;;;5124650;27;20114;-77
2022/08/21 12:22:36;;;;;;;9.98;8.98;;;;;;;;;;5090104;28;20414;-79
2022/08/21 12:25:07;;;;;;;9.93;8.40;;;;;;;;;;5091651;28;20126;-79
2022/08/21 12:27:54;;;;;;;10.38;9.27;;;;;;;;;;5092060;28;20020;-77
2022/08/21 12:30:40;;;;;;;14.68;11.80;;;;;;;;;;5088509;28;20025;-79
2022/08/21 12:33:18;;;;;;;15.50;13.98;;;;;;;;;;5090376;28;20039;-80
2022/08/21 12:35:44;;;;;;;16.77;15.18;;;;;;;;;;5077365;28;20020;-79
2022/08/21 12:38:27;;;;;;;17.67;14.98;;;;;;;;;;5090428;28;20469;-79
2022/08/21 12:40:55;;;;;;;17.60;15.70;;;;;;;;;;5090153;28;20051;-80
2022/08/21 12:43:24;;;;;;;18.20;16.25;;;;;;;;;;5091688;28;20104;-79
2022/08/21 12:45:52;;;;;;;17.75;15.50;;;;;;;;;;5091174;28;20046;-79
2022/08/21 12:48:30;;;;;;;15.80;14.02;;;;;;;;;;5091569;28;20134;-78
2022/08/21 12:51:07;;;;;;;15.20;13.57;;;;;;;;;;5091048;28;20036;-78
2022/08/21 12:53:36;;;;;;;21.35;17.30;;;;;;;;;;5090933;28;20023;-78
2022/08/21 12:56:04;;;;;;;17.35;15.68;;;;;;;;;;5121916;27;20032;-77
2022/08/21 12:58:30;;;;;;;17.42;15.63;;;;;;;;;;5117800;27;20378;-77
2022/08/21 13:01:08;;;;;;;17.13;15.40;;;;;;;;;;5090607;28;20040;-76
2022/08/21 13:03:36;;;;;;;18.27;16.38;;;;;;;;;;5091446;28;20405;-77
2022/08/21 13:06:03;;;;;;;18.15;16.25;;;;;;;;;;5119517;28;20021;-78
2022/08/21 13:08:30;;;;;;;17.83;16.05;;;;;;;;;;5085868;28;20016;-77
2022/08/21 13:11:07;;;;;;;16.75;15.02;;;;;;;;;;5092200;28;20027;-78
2022/08/21 13:13:33;;;;;;;19.55;17.55;;;;;;;;;;5118264;28;20027;-76
2022/08/21 13:16:01;;;;;;;18.52;16.63;;;;;;;;;;5088302;28;20046;-78
2022/08/21 13:18:29;;;;;;;19.77;16.92;;;;;;;;;;5117382;27;20495;-77
2022/08/21 13:21:24;;;;;;;19.83;17.73;;;;;;;;;;5086411;28;20031;-81
2022/08/21 13:23:50;;;;;;;20.77;18.67;;;;;;;;;;5081236;28;20036;-80
2022/08/21 13:26:19;;;;;;;20.95;18.08;;;;;;;;;;5106875;28;20048;-79
2022/08/21 13:28:47;;;;;;;21.73;19.55;;;;;;;;;;5091776;28;20043;-81
2022/08/21 13:31:13;;;;;;;23.30;21.00;;;;;;;;;;5092164;28;20090;-78
2022/08/21 13:33:40;;;;;;;19.45;17.42;;;;;;;;;;5090860;28;20048;-77
2022/08/21 13:36:10;;;;;;;24.08;19.52;;;;;;;;;;5118040;27;20031;-79
2022/08/21 13:38:38;;;;;;;17.17;15.48;;;;;;;;;;5125865;28;20123;-77
2022/08/21 13:41:06;;;;;;;17.95;15.48;;;;;;;;;;5091200;28;20031;-76
2022/08/21 13:43:33;;;;;;;16.90;15.02;;;;;;;;;;5092580;28;20016;-78
2022/08/21 13:46:00;;;;;;;19.67;17.30;;;;;;;;;;5091189;28;20025;-78
2022/08/21 13:48:29;;;;;;;18.90;16.75;;;;;;;;;;5111647;27;20016;-79
2022/08/21 13:50:55;;;;;;;17.23;15.43;;;;;;;;;;5084945;28;20040;-77
2022/08/21 13:53:21;;;;;;;19.25;15.90;;;;;;;;;;5087461;28;20027;-77
2022/08/21 13:55:47;;;;;;;15.30;12.52;;;;;;;;;;5090607;28;20108;-75
2022/08/21 13:58:24;;;;;;;16.20;13.77;;;;;;;;;;5116013;27;20186;-79
2022/08/21 14:00:51;;;;;;;14.30;12.75;;;;;;;;;;5119321;27;20059;-77
2022/08/21 14:03:43;;;;;;;13.80;12.32;;;;;;;;;;5096475;28;20032;-78
2022/08/21 14:06:15;;;;;;;15.00;11.40;;;;;;;;;;5123623;27;20052;-78
2022/08/21 14:08:42;;;;;;;14.95;11.77;;;;;;;;;;5089214;28;20012;-77
2022/08/21 14:11:11;;;;;;;11.65;10.52;;;;;;;;;;5090488;28;20036;-77
2022/08/21 14:13:40;;;;;;;10.13;9.13;;;;;;;;;;5126679;27;20055;-76
2022/08/21 14:16:15;;;;;;;12.10;10.90;;;;;;;;;;5127393;27;20012;-77
2022/08/21 14:19:13;;;;;;;13.95;11.80;;;;;;;;;;5100043;28;20039;-76
2022/08/21 14:21:43;;;;;;;14.63;13.15;;;;;;;;;;5061579;28;20055;-76
2022/08/21 14:24:11;;;;;;;13.48;12.15;;;;;;;;;;5094223;28;20026;-77
2022/08/21 14:26:49;;;;;;;13.02;11.68;;;;;;;;;;5090592;28;20364;-77
2022/08/21 14:29:16;;;;;;;17.60;13.07;;;;;;;;;;5126748;27;20024;-77
2022/08/21 14:31:43;;;;;;;15.82;14.15;;;;;;;;;;5115769;27;20051;-79
2022/08/21 14:34:11;;;;;;;15.90;13.75;;;;;;;;;;5089815;28;20063;-78